createdAt,value
2022-10-03T00:00:39.923Z,9.2
2022-10-03T00:10:40.473Z,9.2
2022-10-03T00:20:41.111Z,9.2
2022-10-03T00:30:41.802Z,9.1
2022-10-03T00:50:42.322Z,9.1
2022-10-03T01:00:42.808Z,9.1
2022-10-03T01:10:43.661Z,9.1
2022-10-03T01:20:44.414Z,8.9
2022-10-03T01:30:44.844Z,8.9
2022-10-03T01:40:45.072Z,9
2022-10-03T01:50:45.229Z,9
2022-10-03T02:00:46.245Z,8.9
2022-10-03T02:10:46.919Z,8.8
2022-10-03T02:20:47.476Z,8.7
2022-10-03T02:30:48.139Z,8.7
2022-10-03T02:40:48.773Z,8.5
2022-10-03T03:00:49.657Z,8.4
2022-10-03T03:10:50.295Z,8.1
2022-10-03T03:20:50.567Z,8.2
2022-10-03T03:30:50.965Z,8.2
2022-10-03T03:40:51.172Z,8.1
2022-10-03T03:50:51.977Z,8.1
2022-10-03T04:00:52.623Z,8.1
2022-10-03T04:10:52.965Z,8
2022-10-03T04:20:53.859Z,7.9
2022-10-03T04:30:54.740Z,8
2022-10-03T04:40:55.020Z,8.1
2022-10-03T04:50:55.540Z,8.3
2022-10-03T05:00:56.100Z,8.4
2022-10-03T05:10:56.560Z,8.5
2022-10-03T05:20:57.174Z,8.6
2022-10-03T05:30:57.483Z,8.5
2022-10-03T05:40:58.484Z,8.6
2022-10-03T05:50:59.014Z,8.6
2022-10-03T06:00:59.825Z,8.4
2022-10-03T06:11:00.864Z,8.4
2022-10-03T06:21:01.342Z,8.6
2022-10-03T06:41:03.104Z,9.1
2022-10-03T06:51:03.798Z,9.3
2022-10-03T07:01:04.093Z,10
2022-10-03T07:11:04.276Z,10.5
2022-10-03T07:21:05.219Z,11.1
2022-10-03T07:31:05.642Z,11.6
2022-10-03T07:51:06.240Z,11.6
2022-10-03T08:01:06.300Z,12
2022-10-03T08:11:06.796Z,12.3
2022-10-03T08:31:08.395Z,13.1
2022-10-03T08:41:09.379Z,13.2
2022-10-03T08:51:09.881Z,13.6
2022-10-03T09:01:10.234Z,13.7
2022-10-03T09:11:10.634Z,13.7
2022-10-03T09:21:11.043Z,14
2022-10-03T09:31:11.936Z,14.1
2022-10-03T09:41:12.099Z,14.4
2022-10-03T09:51:12.923Z,14.6
2022-10-03T10:01:13.591Z,14.7
2022-10-03T10:11:13.816Z,15.3
2022-10-03T10:21:13.926Z,15.5
2022-10-03T10:41:15.024Z,16.2
2022-10-03T10:51:15.130Z,16.7
2022-10-03T11:01:15.444Z,16.9
2022-10-03T11:11:16.336Z,16.4
2022-10-03T11:21:17.103Z,16.1
2022-10-03T11:31:17.397Z,16.9
2022-10-03T11:41:17.436Z,16.5
2022-10-03T11:51:18.354Z,17.3
2022-10-03T12:01:18.764Z,17.5
2022-10-03T12:21:21.913Z,16.4
2022-10-03T12:31:19.424Z,16.2
2022-10-03T12:41:19.586Z,16.8
2022-10-03T12:51:19.691Z,16.1
2022-10-03T13:01:20.655Z,16.5
2022-10-03T13:11:21.308Z,16.3
2022-10-03T13:11:26.603Z,16.3
2022-10-03T13:21:44.821Z,16.2
2022-10-03T13:31:28.203Z,16.3
2022-10-03T13:41:28.406Z,17.3
2022-10-03T13:51:28.564Z,17.3
2022-10-03T14:01:28.688Z,16.4
2022-10-03T14:11:28.750Z,16.7
2022-10-03T14:31:29.704Z,17.3
2022-10-03T14:41:29.781Z,17.4
2022-10-03T14:51:30.360Z,17.1
2022-10-03T15:11:32.333Z,16.9
2022-10-03T15:21:32.386Z,16.9
2022-10-03T15:31:33.428Z,16.9
2022-10-03T15:51:35.276Z,16.7
2022-10-03T16:01:36.030Z,16.5
2022-10-03T16:11:36.452Z,16.3
2022-10-03T16:21:37.493Z,16
2022-10-03T16:31:37.854Z,15.7
2022-10-03T16:41:38.049Z,15.4
2022-10-03T16:51:38.241Z,14.9
2022-10-03T17:01:38.294Z,14.4
2022-10-03T17:11:39.201Z,14
2022-10-03T17:31:39.866Z,13.2
2022-10-03T17:41:40.256Z,12.9
2022-10-03T17:51:40.261Z,12.7
2022-10-03T18:01:40.477Z,12.5
2022-10-03T18:11:40.725Z,12.4
2022-10-03T18:21:41.699Z,12.2
2022-10-03T18:31:42.071Z,12.1
2022-10-03T18:41:42.583Z,11.8
2022-10-03T18:51:43.603Z,11.7
2022-10-03T19:01:44.985Z,11.4
2022-10-03T19:11:45.249Z,11.2
2022-10-03T19:21:46.086Z,11
2022-10-03T19:31:46.388Z,10.9
2022-10-03T19:41:47.020Z,10.9
2022-10-03T19:51:47.874Z,10.9
2022-10-03T20:11:49.572Z,10.8
2022-10-03T20:21:50.090Z,10.8
2022-10-03T20:31:50.202Z,10.9
2022-10-03T20:41:50.372Z,10.9
2022-10-03T20:51:51.399Z,10.7
2022-10-03T21:01:51.965Z,10.7
2022-10-03T21:11:54.597Z,10.5
2022-10-03T21:21:53.421Z,10.4
2022-10-03T21:31:54.143Z,10.4
2022-10-03T21:41:54.391Z,10.4
2022-10-03T21:51:54.962Z,10.4
2022-10-03T22:01:55.906Z,10.4
2022-10-03T22:11:56.178Z,10.3
2022-10-03T22:21:56.503Z,10.3
2022-10-03T22:31:56.806Z,10.4
2022-10-03T22:41:57.307Z,10.3
2022-10-03T22:51:57.983Z,10.3
2022-10-03T23:01:58.020Z,10.2
2022-10-03T23:11:58.307Z,10.1
2022-10-03T23:21:59.103Z,10
2022-10-03T23:31:59.576Z,9.9
2022-10-03T23:42:00.273Z,9.8
2022-10-03T23:52:01.219Z,9.8
